createdAt,value
2019-06-15T00:00:10.284Z,60.70
2019-06-15T00:02:39.077Z,60.90
2019-06-15T00:05:09.225Z,60.80
2019-06-15T00:07:37.805Z,61.50
2019-06-15T00:10:07.614Z,61.50
2019-06-15T00:12:38.008Z,61.20
2019-06-15T00:15:07.450Z,61.20
2019-06-15T00:17:35.887Z,61.10
2019-06-15T00:20:08.483Z,60.90
2019-06-15T00:22:37.057Z,60.70
2019-06-15T00:25:08.420Z,60.70
2019-06-15T00:27:36.975Z,60.90
2019-06-15T00:30:10.285Z,60.80
2019-06-15T00:32:40.336Z,60.70
2019-06-15T00:35:10.112Z,60.70
2019-06-15T00:37:40.520Z,60.80
2019-06-15T00:40:09.652Z,60.80
2019-06-15T00:42:38.174Z,60.60
2019-06-15T00:45:07.444Z,60.60
2019-06-15T00:47:36.214Z,60.60
2019-06-15T00:50:06.712Z,60.80
2019-06-15T00:52:35.344Z,60.80
2019-06-15T00:55:06.132Z,60.60
2019-06-15T00:57:38.306Z,60.60
2019-06-15T01:00:12.200Z,60.80
2019-06-15T01:02:42.175Z,61.10
2019-06-15T01:05:10.944Z,60.80
2019-06-15T01:07:39.459Z,60.60
2019-06-15T01:10:09.264Z,60.90
2019-06-15T01:12:37.796Z,61.20
2019-06-15T01:15:07.267Z,61.20
2019-06-15T01:17:35.984Z,61.10
2019-06-15T01:20:06.376Z,61.00
2019-06-15T01:22:34.808Z,61.20
2019-06-15T01:25:06.103Z,61.90
2019-06-15T01:27:34.728Z,62.10
2019-06-15T01:30:05.043Z,62.30
2019-06-15T01:32:33.552Z,62.10
2019-06-15T01:35:01.994Z,62.00
2019-06-15T01:37:30.463Z,62.00
2019-06-15T01:39:58.892Z,61.60
2019-06-15T01:42:27.370Z,61.60
2019-06-15T01:44:55.874Z,61.70
2019-06-15T01:47:24.418Z,62.10
2019-06-15T01:49:52.966Z,61.90
2019-06-15T01:52:25.722Z,62.10
2019-06-15T01:54:54.168Z,62.10
2019-06-15T01:57:22.782Z,62.40
2019-06-15T01:59:51.961Z,62.60
2019-06-15T02:02:20.435Z,62.80
2019-06-15T02:04:49.187Z,63.00
2019-06-15T02:07:17.618Z,63.20
2019-06-15T02:09:46.083Z,63.50
2019-06-15T02:12:14.523Z,63.50
2019-06-15T02:14:42.982Z,63.20
2019-06-15T02:17:11.728Z,63.60
2019-06-15T02:19:40.198Z,63.60
2019-06-15T02:22:08.666Z,63.90
2019-06-15T02:24:37.184Z,63.80
2019-06-15T02:27:05.791Z,63.70
2019-06-15T02:29:34.261Z,63.70
2019-06-15T02:32:02.721Z,63.60
2019-06-15T02:34:31.199Z,63.60
2019-06-15T02:36:59.708Z,63.60
2019-06-15T02:39:28.837Z,63.60
2019-06-15T02:41:57.316Z,63.70
2019-06-15T02:44:44.640Z,63.80
2019-06-15T02:47:13.095Z,63.80
2019-06-15T02:49:41.533Z,63.80
2019-06-15T02:52:10.380Z,63.80
2019-06-15T02:54:38.970Z,63.80
2019-06-15T02:57:07.478Z,63.90
2019-06-15T02:59:35.936Z,64.50
2019-06-15T03:02:04.732Z,64.70
2019-06-15T03:04:33.279Z,64.50
2019-06-15T03:07:01.785Z,64.30
2019-06-15T03:09:31.121Z,64.00
2019-06-15T03:12:00.266Z,63.90
2019-06-15T03:14:29.559Z,64.10
2019-06-15T03:16:58.229Z,63.60
2019-06-15T03:19:26.754Z,63.30
2019-06-15T03:21:55.279Z,63.30
2019-06-15T03:24:24.407Z,63.30
2019-06-15T03:26:52.862Z,63.60
2019-06-15T03:29:21.323Z,63.80
2019-06-15T03:31:49.836Z,63.40
2019-06-15T03:34:18.579Z,63.20
2019-06-15T03:36:47.014Z,62.80
2019-06-15T03:39:15.484Z,62.50
2019-06-15T03:41:46.696Z,62.60
2019-06-15T03:44:15.227Z,61.50
2019-06-15T03:46:43.679Z,62.60
2019-06-15T03:49:12.151Z,62.40
2019-06-15T03:51:40.590Z,62.40
2019-06-15T03:54:09.054Z,63.30
2019-06-15T03:56:37.506Z,64.60
2019-06-15T03:59:06.094Z,65.80
2019-06-15T04:01:40.528Z,66.60
2019-06-15T04:04:09.423Z,67.20
2019-06-15T04:06:37.868Z,67.90
2019-06-15T04:09:07.836Z,68.40
2019-06-15T04:11:36.339Z,68.80
2019-06-15T04:14:05.334Z,69.40
2019-06-15T04:16:35.435Z,69.50
2019-06-15T04:19:05.219Z,70.40
2019-06-15T04:21:33.875Z,69.50
2019-06-15T04:24:02.396Z,68.90
2019-06-15T04:26:36.129Z,68.70
2019-06-15T04:29:01.019Z,68.30
2019-06-15T04:31:29.479Z,68.80
2019-06-15T04:33:58.050Z,68.60
2019-06-15T04:36:26.532Z,68.90
2019-06-15T04:38:54.958Z,69.10
2019-06-15T04:41:23.499Z,69.10
2019-06-15T04:43:51.938Z,69.30
2019-06-15T04:46:20.413Z,69.00
2019-06-15T04:48:48.855Z,68.70
2019-06-15T04:51:17.315Z,68.60
2019-06-15T04:53:45.756Z,68.80
2019-06-15T04:56:14.215Z,69.00
2019-06-15T04:58:42.654Z,69.00
2019-06-15T05:01:11.119Z,68.60
2019-06-15T05:03:39.582Z,68.50
2019-06-15T05:06:08.098Z,68.40
2019-06-15T05:08:36.895Z,68.20
2019-06-15T05:11:05.366Z,68.50
2019-06-15T05:13:33.814Z,68.10
2019-06-15T05:16:02.270Z,67.90
2019-06-15T05:18:30.707Z,67.80
2019-06-15T05:20:59.173Z,67.70
2019-06-15T05:23:27.683Z,67.50
2019-06-15T05:25:56.140Z,67.30
2019-06-15T05:28:24.619Z,67.20
2019-06-15T05:30:53.152Z,66.70
2019-06-15T05:33:21.586Z,65.90
2019-06-15T05:35:50.049Z,65.80
2019-06-15T05:38:18.780Z,66.10
2019-06-15T05:40:47.235Z,65.90
2019-06-15T05:43:15.674Z,65.60
2019-06-15T05:45:44.143Z,65.60
2019-06-15T05:48:12.584Z,65.30
2019-06-15T05:50:41.032Z,65.60
2019-06-15T05:53:09.495Z,65.50
2019-06-15T05:55:37.942Z,65.40
2019-06-15T05:58:06.459Z,65.50
2019-06-15T06:00:34.970Z,65.90
2019-06-15T06:03:03.443Z,66.10
2019-06-15T06:05:31.887Z,66.20
2019-06-15T06:08:00.355Z,66.60
2019-06-15T06:10:28.790Z,66.30
2019-06-15T06:12:57.248Z,66.40
2019-06-15T06:15:26.933Z,66.50
2019-06-15T06:17:55.511Z,66.00
2019-06-15T06:20:23.949Z,66.20
2019-06-15T06:22:52.402Z,65.90
2019-06-15T06:25:20.928Z,65.80
2019-06-15T06:27:49.380Z,65.60
2019-06-15T06:30:18.197Z,65.00
2019-06-15T06:32:46.711Z,65.40
2019-06-15T06:35:15.586Z,64.90
2019-06-15T06:37:44.086Z,64.50
2019-06-15T06:40:12.799Z,64.30
2019-06-15T06:42:41.531Z,64.20
2019-06-15T06:45:11.089Z,64.00
2019-06-15T06:47:40.359Z,63.90
2019-06-15T06:50:09.457Z,63.80
2019-06-15T06:52:37.914Z,63.50
2019-06-15T06:55:06.783Z,63.50
2019-06-15T06:57:35.276Z,63.40
2019-06-15T07:00:07.824Z,63.90
2019-06-15T07:02:36.287Z,63.70
2019-06-15T07:05:06.383Z,63.70
2019-06-15T07:07:35.276Z,64.90
2019-06-15T07:10:05.689Z,63.50
2019-06-15T07:12:34.247Z,63.30
2019-06-15T07:15:04.720Z,63.70
2019-06-15T07:17:32.928Z,62.80
2019-06-15T07:20:01.488Z,63.20
2019-06-15T07:22:30.025Z,62.50
2019-06-15T07:24:58.454Z,62.00
2019-06-15T07:27:26.943Z,62.00
2019-06-15T07:29:55.381Z,61.50
2019-06-15T07:32:23.918Z,60.50
2019-06-15T07:34:52.444Z,59.70
2019-06-15T07:37:20.947Z,58.80
2019-06-15T07:39:49.438Z,59.00
2019-06-15T07:42:17.935Z,58.60
2019-06-15T07:44:46.398Z,58.30
2019-06-15T07:47:14.854Z,58.30
2019-06-15T07:49:43.330Z,58.30
2019-06-15T07:52:11.767Z,57.80
2019-06-15T07:54:40.330Z,57.60
2019-06-15T07:57:08.772Z,57.20
2019-06-15T07:59:37.303Z,56.80
2019-06-15T08:02:05.811Z,55.70
2019-06-15T08:04:34.297Z,54.90
2019-06-15T08:07:02.861Z,54.90
2019-06-15T08:09:31.327Z,54.40
2019-06-15T08:11:59.756Z,53.70
2019-06-15T08:14:28.218Z,53.50
2019-06-15T08:16:56.660Z,52.60
2019-06-15T08:19:25.116Z,52.10
2019-06-15T08:21:53.631Z,52.50
2019-06-15T08:24:22.094Z,52.80
2019-06-15T08:26:50.536Z,52.00
2019-06-15T08:29:19.008Z,52.50
2019-06-15T08:31:47.438Z,53.20
2019-06-15T08:34:15.901Z,53.10
2019-06-15T08:36:44.335Z,53.90
2019-06-15T08:39:12.803Z,54.00
2019-06-15T08:41:41.489Z,53.70
2019-06-15T08:44:10.034Z,53.90
2019-06-15T08:46:38.524Z,54.30
2019-06-15T08:49:07.027Z,55.00
2019-06-15T08:51:35.500Z,55.30
2019-06-15T08:54:03.933Z,55.50
2019-06-15T08:56:33.685Z,54.30
2019-06-15T08:59:02.126Z,54.60
2019-06-15T09:01:30.638Z,53.00
2019-06-15T09:03:59.106Z,52.30
2019-06-15T09:06:27.596Z,52.10
2019-06-15T09:08:56.042Z,51.90
2019-06-15T09:11:24.510Z,51.70
2019-06-15T09:13:53.023Z,51.10
2019-06-15T09:16:21.956Z,50.50
2019-06-15T09:18:50.410Z,50.20
2019-06-15T09:21:18.942Z,49.40
2019-06-15T09:23:47.439Z,49.70
2019-06-15T09:26:16.321Z,50.10
2019-06-15T09:28:44.839Z,50.80
2019-06-15T09:31:13.332Z,50.80
2019-06-15T09:33:41.855Z,50.70
2019-06-15T09:36:10.376Z,51.10
2019-06-15T09:38:38.838Z,51.40
2019-06-15T09:41:07.409Z,51.50
2019-06-15T09:43:35.876Z,51.20
2019-06-15T09:46:04.651Z,51.50
2019-06-15T09:48:33.085Z,51.60
2019-06-15T09:51:02.235Z,51.90
2019-06-15T09:53:30.694Z,52.40
2019-06-15T09:55:59.246Z,53.10
2019-06-15T09:58:27.749Z,52.20
2019-06-15T10:00:56.187Z,51.90
2019-06-15T10:03:24.664Z,52.50
2019-06-15T10:05:53.218Z,51.90
2019-06-15T10:08:21.674Z,52.30
2019-06-15T10:10:50.121Z,51.90
2019-06-15T10:13:18.913Z,52.30
2019-06-15T10:15:47.483Z,51.40
2019-06-15T10:18:16.260Z,50.90
2019-06-15T10:20:44.697Z,51.00
2019-06-15T10:23:13.627Z,51.40
2019-06-15T10:25:42.140Z,51.00
2019-06-15T10:28:10.739Z,48.50
2019-06-15T10:30:39.174Z,47.20
2019-06-15T10:33:07.635Z,46.00
2019-06-15T10:35:36.335Z,45.00
2019-06-15T10:38:04.800Z,44.10
2019-06-15T10:40:33.258Z,42.50
2019-06-15T10:43:01.787Z,43.60
2019-06-15T10:45:30.381Z,43.60
2019-06-15T10:47:58.894Z,42.10
2019-06-15T10:50:27.343Z,40.10
2019-06-15T10:52:55.775Z,39.90
2019-06-15T10:55:24.282Z,38.90
2019-06-15T10:57:52.766Z,38.10
2019-06-15T11:00:21.716Z,38.90
2019-06-15T11:02:50.236Z,36.90
2019-06-15T11:05:20.487Z,36.80
2019-06-15T11:07:48.988Z,36.30
2019-06-15T11:10:20.525Z,34.80
2019-06-15T11:12:48.960Z,35.20
2019-06-15T11:15:17.408Z,35.40
2019-06-15T11:17:46.583Z,35.30
2019-06-15T11:20:15.308Z,35.90
2019-06-15T11:22:43.826Z,35.50
2019-06-15T11:25:12.425Z,35.80
2019-06-15T11:27:40.927Z,35.70
2019-06-15T11:30:14.154Z,36.40
2019-06-15T11:32:40.455Z,37.80
2019-06-15T11:35:09.315Z,39.30
2019-06-15T11:37:37.825Z,41.10
2019-06-15T11:40:07.524Z,41.90
2019-06-15T11:42:35.998Z,43.20
2019-06-15T11:45:06.684Z,43.80
2019-06-15T11:47:35.667Z,44.50
2019-06-15T11:50:05.443Z,45.10
2019-06-15T11:52:33.879Z,45.00
2019-06-15T11:55:02.331Z,44.80
2019-06-15T11:57:31.201Z,43.20
2019-06-15T12:00:00.046Z,41.70
2019-06-15T12:02:28.515Z,40.60
2019-06-15T12:04:58.731Z,39.90
2019-06-15T12:07:27.143Z,39.20
2019-06-15T12:09:55.592Z,39.00
2019-06-15T12:12:24.018Z,37.20
2019-06-15T12:14:52.507Z,35.10
2019-06-15T12:17:21.026Z,33.80
2019-06-15T12:19:49.454Z,32.10
2019-06-15T12:22:17.916Z,31.20
2019-06-15T12:24:46.379Z,30.00
2019-06-15T12:27:14.828Z,30.00
2019-06-15T12:29:43.262Z,29.70
2019-06-15T12:32:11.748Z,29.70
2019-06-15T12:34:40.184Z,30.80
2019-06-15T12:37:08.644Z,29.30
2019-06-15T12:39:41.661Z,29.20
2019-06-15T12:42:07.353Z,30.00
2019-06-15T12:44:35.773Z,31.50
2019-06-15T12:47:04.229Z,33.20
2019-06-15T12:49:32.795Z,34.50
2019-06-15T12:52:01.318Z,35.20
2019-06-15T12:54:29.754Z,36.00
2019-06-15T12:56:58.206Z,36.40
2019-06-15T12:59:26.740Z,37.50
2019-06-15T13:01:55.222Z,35.00
2019-06-15T13:04:23.738Z,36.00
2019-06-15T13:06:52.659Z,32.90
2019-06-15T13:09:21.095Z,30.30
2019-06-15T13:11:49.559Z,29.20
2019-06-15T13:14:18.380Z,29.10
2019-06-15T13:16:48.100Z,28.10
2019-06-15T13:19:16.816Z,28.60
2019-06-15T13:21:45.651Z,29.70
2019-06-15T13:24:14.427Z,27.90
2019-06-15T13:26:42.896Z,28.60
2019-06-15T13:29:11.339Z,28.50
2019-06-15T13:31:39.863Z,26.70
2019-06-15T13:34:08.325Z,28.50
2019-06-15T13:36:36.846Z,26.70
2019-06-15T13:39:07.018Z,25.50
2019-06-15T13:41:35.471Z,26.70
2019-06-15T13:44:03.922Z,26.50
2019-06-15T13:46:32.384Z,26.30
2019-06-15T13:49:00.811Z,25.30
2019-06-15T13:51:29.278Z,25.50
2019-06-15T13:53:57.713Z,25.80
2019-06-15T13:56:26.246Z,26.30
2019-06-15T13:58:54.697Z,26.70
2019-06-15T14:01:33.678Z,25.30
2019-06-15T14:03:53.316Z,25.10
2019-06-15T14:06:21.736Z,25.40
2019-06-15T14:08:50.225Z,25.20
2019-06-15T14:11:18.707Z,25.30
2019-06-15T14:13:47.198Z,25.00
2019-06-15T14:16:15.631Z,23.50
2019-06-15T14:18:44.101Z,23.10
2019-06-15T14:21:12.791Z,23.50
2019-06-15T14:23:41.247Z,24.90
2019-06-15T14:26:09.759Z,24.70
2019-06-15T14:28:38.211Z,25.60
2019-06-15T14:31:06.648Z,26.40
2019-06-15T14:33:35.103Z,26.60
2019-06-15T14:36:03.707Z,25.30
2019-06-15T14:38:32.278Z,26.20
2019-06-15T14:41:00.792Z,25.70
2019-06-15T14:43:29.268Z,23.90
2019-06-15T14:45:59.843Z,22.80
2019-06-15T14:48:27.938Z,24.00
2019-06-15T14:50:56.366Z,23.90
2019-06-15T14:53:25.006Z,23.10
2019-06-15T14:55:53.459Z,24.40
2019-06-15T14:58:21.906Z,23.30
2019-06-15T15:00:50.344Z,24.00
2019-06-15T15:03:19.087Z,22.80
2019-06-15T15:05:47.527Z,23.10
2019-06-15T15:08:18.099Z,22.90
2019-06-15T15:10:46.574Z,22.60
2019-06-15T15:13:15.060Z,22.40
2019-06-15T15:15:43.500Z,22.70
2019-06-15T15:18:11.940Z,22.70
2019-06-15T15:20:40.376Z,23.40
2019-06-15T15:23:08.834Z,23.50
2019-06-15T15:25:37.257Z,23.60
2019-06-15T15:28:07.371Z,24.30
2019-06-15T15:30:40.597Z,23.70
2019-06-15T15:33:09.850Z,21.90
2019-06-15T15:35:38.304Z,23.00
2019-06-15T15:38:06.848Z,22.20
2019-06-15T15:40:36.529Z,22.10
2019-06-15T15:43:06.931Z,22.60
2019-06-15T15:45:36.992Z,23.00
2019-06-15T15:48:06.841Z,24.40
2019-06-15T15:50:37.084Z,23.20
2019-06-15T15:53:06.424Z,23.50
2019-06-15T15:55:34.899Z,24.90
2019-06-15T15:58:03.375Z,24.60
2019-06-15T16:00:33.851Z,24.90
2019-06-15T16:03:02.572Z,24.20
2019-06-15T16:05:31.103Z,24.90
2019-06-15T16:07:59.786Z,25.20
2019-06-15T16:10:28.494Z,25.10
2019-06-15T16:12:56.976Z,25.60
2019-06-15T16:15:26.533Z,26.20
2019-06-15T16:17:56.351Z,27.40
2019-06-15T16:20:26.408Z,27.90
2019-06-15T16:22:56.417Z,28.30
2019-06-15T16:25:26.584Z,29.20
2019-06-15T16:27:56.663Z,29.20
2019-06-15T16:30:59.804Z,29.90
2019-06-15T16:33:04.322Z,30.10
2019-06-15T16:35:36.144Z,30.80
2019-06-15T16:38:06.596Z,32.00
2019-06-15T16:40:38.945Z,32.40
2019-06-15T16:43:07.890Z,33.40
2019-06-15T16:45:37.051Z,33.90
2019-06-15T16:48:06.424Z,33.90
2019-06-15T16:50:36.682Z,34.10
2019-06-15T16:53:05.505Z,34.40
2019-06-15T16:55:36.525Z,34.50
2019-06-15T16:58:07.139Z,34.00
2019-06-15T17:00:36.429Z,34.50
2019-06-15T17:03:19.770Z,34.60
2019-06-15T17:05:36.328Z,34.80
2019-06-15T17:08:06.939Z,34.30
2019-06-15T17:10:40.344Z,34.80
2019-06-15T17:13:09.027Z,35.40
2019-06-15T17:15:38.148Z,35.00
2019-06-15T17:18:07.232Z,34.90
2019-06-15T17:20:52.120Z,35.30
2019-06-15T17:23:21.279Z,35.40
2019-06-15T17:25:49.893Z,35.10
2019-06-15T17:28:18.667Z,35.60
2019-06-15T17:30:47.119Z,35.30
2019-06-15T17:33:16.652Z,35.80
2019-06-15T17:35:56.265Z,35.50
2019-06-15T17:38:16.746Z,35.50
2019-06-15T17:40:46.112Z,35.20
2019-06-15T17:43:16.221Z,35.90
2019-06-15T17:45:46.874Z,35.00
2019-06-15T17:48:17.113Z,35.40
2019-06-15T17:50:47.202Z,35.70
2019-06-15T17:53:16.966Z,35.30
2019-06-15T17:55:46.707Z,35.60
2019-06-15T17:58:17.021Z,35.80
2019-06-15T18:00:47.986Z,35.50
2019-06-15T18:03:17.090Z,35.50
2019-06-15T18:05:47.984Z,35.50
2019-06-15T18:08:16.702Z,35.80
2019-06-15T18:10:47.621Z,35.20
2019-06-15T18:13:16.795Z,35.10
2019-06-15T18:15:47.689Z,34.40
2019-06-15T18:18:16.776Z,34.10
2019-06-15T18:20:45.660Z,34.50
2019-06-15T18:23:17.737Z,33.70
2019-06-15T18:25:46.824Z,34.50
2019-06-15T18:28:17.569Z,34.50
2019-06-15T18:30:46.815Z,34.50
2019-06-15T18:33:16.529Z,33.90
2019-06-15T18:35:47.513Z,34.10
2019-06-15T18:38:16.467Z,34.20
2019-06-15T18:40:44.899Z,33.70
2019-06-15T18:43:14.253Z,34.70
2019-06-15T18:45:44.038Z,34.30
2019-06-15T18:48:16.870Z,34.40
2019-06-15T18:50:45.363Z,34.00
2019-06-15T18:53:13.791Z,34.60
2019-06-15T18:55:42.429Z,34.40
2019-06-15T18:58:10.865Z,34.80
2019-06-15T19:00:39.415Z,35.70
2019-06-15T19:03:07.859Z,35.90
2019-06-15T19:05:37.364Z,35.10
2019-06-15T19:08:06.821Z,35.20
2019-06-15T19:10:38.262Z,34.70
2019-06-15T19:13:07.478Z,35.40
2019-06-15T19:15:37.218Z,35.80
2019-06-15T19:18:07.631Z,36.00
2019-06-15T19:20:37.137Z,35.90
2019-06-15T19:23:07.089Z,36.10
2019-06-15T19:25:36.584Z,36.00
2019-06-15T19:28:05.478Z,36.20
2019-06-15T19:30:37.041Z,36.40
2019-06-15T19:33:05.790Z,37.00
2019-06-15T19:35:36.347Z,36.80
2019-06-15T19:38:06.373Z,36.90
2019-06-15T19:40:37.548Z,37.00
2019-06-15T19:43:06.519Z,36.90
2019-06-15T19:45:37.094Z,37.80
2019-06-15T19:48:06.637Z,38.00
2019-06-15T19:50:36.211Z,37.90
2019-06-15T19:53:07.080Z,37.80
2019-06-15T19:55:36.179Z,37.70
2019-06-15T19:58:07.234Z,38.10
2019-06-15T20:00:36.423Z,37.80
2019-06-15T20:03:06.977Z,37.90
2019-06-15T20:05:37.025Z,37.90
2019-06-15T20:08:07.023Z,39.00
2019-06-15T20:10:37.026Z,40.10
2019-06-15T20:13:07.051Z,40.30
2019-06-15T20:15:37.650Z,40.80
2019-06-15T20:18:07.017Z,41.10
2019-06-15T20:20:36.970Z,41.20
2019-06-15T20:23:07.157Z,41.40
2019-06-15T20:25:36.813Z,41.20
2019-06-15T20:28:07.057Z,41.80
2019-06-15T20:30:37.022Z,42.50
2019-06-15T20:33:07.895Z,41.50
2019-06-15T20:35:36.075Z,41.50
2019-06-15T20:38:04.675Z,41.60
2019-06-15T20:40:52.524Z,41.50
2019-06-15T20:43:20.988Z,41.20
2019-06-15T20:45:49.426Z,42.40
2019-06-15T20:48:17.883Z,42.70
2019-06-15T20:50:47.177Z,43.00
2019-06-15T20:53:16.985Z,42.80
2019-06-15T20:55:46.589Z,43.10
2019-06-15T20:58:17.073Z,43.40
2019-06-15T21:00:47.639Z,43.60
2019-06-15T21:03:16.159Z,43.20
2019-06-15T21:05:47.372Z,43.20
2019-06-15T21:08:15.971Z,42.90
2019-06-15T21:10:46.387Z,42.90
2019-06-15T21:13:16.739Z,42.70
2019-06-15T21:15:47.359Z,42.90
2019-06-15T21:18:16.386Z,43.00
2019-06-15T21:20:47.081Z,42.50
2019-06-15T21:23:16.289Z,42.50
2019-06-15T21:25:46.727Z,42.70
2019-06-15T21:28:16.917Z,42.90
2019-06-15T21:30:47.136Z,43.00
2019-06-15T21:33:15.867Z,43.30
2019-06-15T21:35:49.875Z,43.40
2019-06-15T21:38:14.491Z,43.50
2019-06-15T21:40:47.284Z,43.80
2019-06-15T21:43:14.729Z,43.80
2019-06-15T21:45:43.184Z,44.30
2019-06-15T21:48:12.044Z,44.20
2019-06-15T21:50:40.564Z,44.50
2019-06-15T21:53:09.018Z,44.40
2019-06-15T21:55:37.489Z,44.40
2019-06-15T21:58:07.663Z,44.30
2019-06-15T22:00:40.802Z,44.40
2019-06-15T22:03:09.251Z,44.50
2019-06-15T22:05:37.776Z,44.60
2019-06-15T22:08:06.519Z,44.70
2019-06-15T22:10:36.061Z,44.80
2019-06-15T22:13:06.549Z,44.90
2019-06-15T22:15:34.862Z,45.30
2019-06-15T22:18:03.292Z,45.00
2019-06-15T22:20:31.774Z,45.30
2019-06-15T22:23:01.603Z,45.30
2019-06-15T22:25:30.066Z,45.50
2019-06-15T22:27:58.683Z,45.40
2019-06-15T22:30:27.740Z,45.60
2019-06-15T22:32:56.406Z,45.50
2019-06-15T22:35:26.926Z,45.50
2019-06-15T22:37:56.222Z,45.80
2019-06-15T22:40:24.898Z,45.60
2019-06-15T22:42:53.461Z,45.60
2019-06-15T22:45:21.964Z,45.60
2019-06-15T22:47:50.480Z,45.80
2019-06-15T22:50:19.082Z,45.50
2019-06-15T22:52:47.572Z,45.50
2019-06-15T22:55:16.681Z,45.20
2019-06-15T22:57:46.082Z,45.00
2019-06-15T23:00:17.785Z,45.20
2019-06-15T23:02:46.277Z,45.40
2019-06-15T23:05:17.114Z,45.60
2019-06-15T23:07:47.170Z,45.50
2019-06-15T23:10:16.684Z,45.60
2019-06-15T23:12:46.375Z,45.70
2019-06-15T23:15:17.328Z,45.40
2019-06-15T23:17:46.655Z,44.80
2019-06-15T23:20:17.053Z,44.60
2019-06-15T23:22:46.768Z,45.00
2019-06-15T23:25:16.776Z,45.10
2019-06-15T23:27:46.930Z,45.50
2019-06-15T23:30:16.294Z,45.10
2019-06-15T23:32:46.805Z,45.50
2019-06-15T23:35:16.787Z,45.10
2019-06-15T23:37:46.472Z,44.70
2019-06-15T23:40:18.958Z,44.90
2019-06-15T23:42:48.855Z,46.00
2019-06-15T23:45:19.485Z,45.50
2019-06-15T23:47:48.279Z,45.40
2019-06-15T23:50:18.123Z,45.20
2019-06-15T23:52:48.023Z,45.20
2019-06-15T23:55:17.204Z,45.00
2019-06-15T23:57:46.468Z,45.40
